createdAt,value
2022-12-25T00:01:08.128Z,52.90
2022-12-25T00:03:38.290Z,54.05
2022-12-25T00:06:07.189Z,53.08
2022-12-25T00:08:36.655Z,55.63
2022-12-25T00:11:07.645Z,52.67
2022-12-25T00:13:35.419Z,52.00
2022-12-25T00:16:07.011Z,52.20
2022-12-25T00:18:35.263Z,54.10
2022-12-25T00:21:05.102Z,51.78
2022-12-25T00:23:34.099Z,52.60
2022-12-25T00:26:05.988Z,53.20
2022-12-25T00:28:35.996Z,55.42
2022-12-25T00:31:07.869Z,49.50
2022-12-25T00:33:36.970Z,53.00
2022-12-25T00:36:05.994Z,52.00
2022-12-25T00:38:35.436Z,49.72
2022-12-25T00:41:07.174Z,49.55
2022-12-25T00:43:35.562Z,48.45
2022-12-25T00:46:05.440Z,48.40
2022-12-25T00:48:34.537Z,46.25
2022-12-25T00:51:04.979Z,48.33
2022-12-25T00:53:33.138Z,46.67
2022-12-25T00:56:03.442Z,46.03
2022-12-25T00:58:34.426Z,46.67
2022-12-25T01:01:02.735Z,47.10
2022-12-25T01:03:31.677Z,44.03
2022-12-25T01:06:01.203Z,43.70
2022-12-25T01:08:31.466Z,44.63
2022-12-25T01:11:02.758Z,46.75
2022-12-25T01:13:32.830Z,47.72
2022-12-25T01:16:05.910Z,47.63
2022-12-25T01:18:34.091Z,49.65
2022-12-25T01:21:06.441Z,48.20
2022-12-25T01:23:34.160Z,50.08
2022-12-25T01:26:04.300Z,45.10
2022-12-25T01:28:33.792Z,47.10
2022-12-25T01:31:01.600Z,44.60
2022-12-25T01:33:33.929Z,44.85
2022-12-25T01:36:01.673Z,45.58
2022-12-25T01:38:29.490Z,45.47
2022-12-25T01:40:57.615Z,42.20
2022-12-25T01:43:27.970Z,45.03
2022-12-25T01:45:57.820Z,43.97
2022-12-25T01:48:29.403Z,47.92
2022-12-25T01:51:00.735Z,46.97
2022-12-25T01:53:32.193Z,48.35
2022-12-25T01:56:05.346Z,47.05
2022-12-25T01:58:33.455Z,49.65
2022-12-25T02:01:02.651Z,49.15
2022-12-25T02:03:30.869Z,46.97
2022-12-25T02:05:59.752Z,46.25
2022-12-25T02:08:27.501Z,48.63
2022-12-25T02:10:55.437Z,48.72
2022-12-25T02:13:23.216Z,49.33
2022-12-25T02:16:04.997Z,49.53
2022-12-25T02:18:42.276Z,48.75
2022-12-25T02:21:26.720Z,46.70
2022-12-25T02:24:22.377Z,49.17
2022-12-25T02:27:03.939Z,49.53
2022-12-25T02:32:13.388Z,47.53
2022-12-25T02:34:47.964Z,48.13
2022-12-25T02:37:20.130Z,45.38
2022-12-25T02:39:56.279Z,46.35
2022-12-25T02:42:31.021Z,48.00
2022-12-25T02:45:00.462Z,50.50
2022-12-25T02:47:29.116Z,47.78
2022-12-25T02:49:58.254Z,48.22
2022-12-25T02:52:29.857Z,49.47
2022-12-25T02:55:01.781Z,46.85
2022-12-25T02:57:35.417Z,48.45
2022-12-25T03:00:06.643Z,46.25
2022-12-25T03:05:07.065Z,44.75
2022-12-25T03:07:38.521Z,44.75
2022-12-25T03:10:10.536Z,48.03
2022-12-25T03:12:44.871Z,46.97
2022-12-25T03:15:14.236Z,45.47
2022-12-25T03:17:42.717Z,45.85
2022-12-25T03:20:11.442Z,44.97
2022-12-25T03:22:43.004Z,49.45
2022-12-25T03:25:11.330Z,104.25
2022-12-25T03:27:41.596Z,84.18
2022-12-25T03:30:10.528Z,63.40
2022-12-25T03:32:48.260Z,46.13
2022-12-25T03:35:20.857Z,46.33
2022-12-25T03:38:06.942Z,45.80
2022-12-25T03:40:49.116Z,47.65
2022-12-25T03:43:25.800Z,45.58
2022-12-25T03:46:02.261Z,45.78
2022-12-25T03:48:36.385Z,45.22
2022-12-25T03:51:10.423Z,44.92
2022-12-25T03:53:44.526Z,44.38
2022-12-25T03:56:13.762Z,43.03
2022-12-25T03:58:51.517Z,44.53
2022-12-25T04:01:20.416Z,43.30
2022-12-25T04:03:50.350Z,43.05
2022-12-25T04:06:17.992Z,42.50
2022-12-25T04:08:48.613Z,46.78
2022-12-25T04:11:16.282Z,44.28
2022-12-25T04:13:43.846Z,44.90
2022-12-25T04:16:11.583Z,43.55
2022-12-25T04:18:39.705Z,41.85
2022-12-25T04:21:08.770Z,43.83
2022-12-25T04:23:36.952Z,42.17
2022-12-25T04:26:04.715Z,41.67
2022-12-25T04:28:33.155Z,42.63
2022-12-25T04:31:01.514Z,41.28
2022-12-25T04:33:29.412Z,41.58
2022-12-25T04:35:57.413Z,43.38
2022-12-25T04:38:26.557Z,41.97
2022-12-25T04:40:54.585Z,41.15
2022-12-25T04:43:22.301Z,41.85
2022-12-25T04:45:53.075Z,44.30
2022-12-25T04:48:21.216Z,42.80
2022-12-25T04:50:48.964Z,45.05
2022-12-25T04:53:18.188Z,43.95
2022-12-25T04:55:47.353Z,42.33
2022-12-25T04:58:15.048Z,42.10
2022-12-25T05:00:43.397Z,42.13
2022-12-25T05:03:11.318Z,41.55
2022-12-25T05:05:39.987Z,40.42
2022-12-25T05:08:07.822Z,42.53
2022-12-25T05:10:35.660Z,41.50
2022-12-25T05:13:05.304Z,40.75
2022-12-25T05:15:33.057Z,41.50
2022-12-25T05:18:00.740Z,40.42
2022-12-25T05:20:28.391Z,39.83
2022-12-25T05:22:56.170Z,41.25
2022-12-25T05:25:25.377Z,38.38
2022-12-25T05:27:54.115Z,40.17
2022-12-25T05:30:23.499Z,38.72
2022-12-25T05:32:51.480Z,41.25
2022-12-25T05:35:19.097Z,39.63
2022-12-25T05:37:46.841Z,41.22
2022-12-25T05:40:14.594Z,39.33
2022-12-25T05:42:42.518Z,39.92
2022-12-25T05:45:11.365Z,40.67
2022-12-25T05:47:40.868Z,39.78
2022-12-25T05:50:09.203Z,39.70
2022-12-25T05:52:36.986Z,39.75
2022-12-25T05:55:05.639Z,37.80
2022-12-25T05:57:33.344Z,37.40
2022-12-25T06:00:01.336Z,39.85
2022-12-25T06:02:29.599Z,39.38
2022-12-25T06:04:58.723Z,40.38
2022-12-25T06:07:26.872Z,39.75
2022-12-25T06:09:54.649Z,39.50
2022-12-25T06:12:22.223Z,38.28
2022-12-25T06:14:50.469Z,39.15
2022-12-25T06:17:18.721Z,39.38
2022-12-25T06:19:46.259Z,39.13
2022-12-25T06:22:15.745Z,39.90
2022-12-25T06:24:44.790Z,39.85
2022-12-25T06:27:12.336Z,38.40
2022-12-25T06:29:40.223Z,37.65
2022-12-25T06:32:08.601Z,37.85
2022-12-25T06:34:37.178Z,37.53
2022-12-25T06:37:05.144Z,36.85
2022-12-25T06:39:35.010Z,37.35
2022-12-25T06:42:02.677Z,39.17
2022-12-25T06:44:30.556Z,38.45
2022-12-25T06:46:58.689Z,37.55
2022-12-25T06:49:26.651Z,37.80
2022-12-25T06:51:54.398Z,34.58
2022-12-25T06:54:22.218Z,34.13
2022-12-25T06:56:51.256Z,34.20
2022-12-25T06:59:20.282Z,31.40
2022-12-25T07:01:51.141Z,33.85
2022-12-25T07:04:24.208Z,31.55
2022-12-25T07:06:52.584Z,31.50
2022-12-25T07:09:20.413Z,32.10
2022-12-25T07:11:48.154Z,30.67
2022-12-25T07:14:23.770Z,30.90
2022-12-25T07:16:52.560Z,29.90
2022-12-25T07:19:20.353Z,31.23
2022-12-25T07:21:47.917Z,27.63
2022-12-25T07:24:18.918Z,29.52
2022-12-25T07:26:46.617Z,29.87
2022-12-25T07:29:15.769Z,28.77
2022-12-25T07:31:45.460Z,29.00
2022-12-25T07:34:13.252Z,29.48
2022-12-25T07:36:40.949Z,28.15
2022-12-25T07:39:10.654Z,26.50
2022-12-25T07:41:42.594Z,26.20
2022-12-25T07:44:10.377Z,25.35
2022-12-25T07:46:37.997Z,24.98
2022-12-25T07:49:07.285Z,26.42
2022-12-25T07:51:35.005Z,24.42
2022-12-25T07:54:02.709Z,24.63
2022-12-25T07:56:30.695Z,24.88
2022-12-25T07:58:58.601Z,25.73
2022-12-25T08:01:28.931Z,25.90
2022-12-25T08:03:58.493Z,25.85
2022-12-25T08:06:30.620Z,25.75
2022-12-25T08:09:03.781Z,26.67
2022-12-25T08:11:31.687Z,26.83
2022-12-25T08:13:59.368Z,25.75
2022-12-25T08:16:27.456Z,26.15
2022-12-25T08:18:55.259Z,25.48
2022-12-25T08:21:23.515Z,25.73
2022-12-25T08:23:52.689Z,26.77
2022-12-25T08:26:22.041Z,32.50
2022-12-25T08:28:50.283Z,28.20
2022-12-25T08:31:20.393Z,26.42
2022-12-25T08:33:49.419Z,24.45
2022-12-25T08:36:17.798Z,24.20
2022-12-25T08:38:46.302Z,24.17
2022-12-25T08:41:16.427Z,23.58
2022-12-25T08:43:44.291Z,22.80
2022-12-25T08:46:13.494Z,23.52
2022-12-25T08:48:44.349Z,24.58
2022-12-25T08:51:13.845Z,23.60
2022-12-25T08:53:42.735Z,23.08
2022-12-25T08:56:10.705Z,22.55
2022-12-25T08:58:40.172Z,23.42
2022-12-25T09:01:08.232Z,24.90
2022-12-25T09:03:36.056Z,23.90
2022-12-25T09:06:05.791Z,24.23
2022-12-25T09:08:34.570Z,25.80
2022-12-25T09:11:03.228Z,24.85
2022-12-25T09:13:31.687Z,24.63
2022-12-25T09:16:05.385Z,23.40
2022-12-25T09:18:34.034Z,24.13
2022-12-25T09:21:03.247Z,25.58
2022-12-25T09:23:31.226Z,25.42
2022-12-25T09:26:00.060Z,25.83
2022-12-25T09:28:27.696Z,24.58
2022-12-25T09:30:55.924Z,24.83
2022-12-25T09:33:29.177Z,26.45
2022-12-25T09:35:58.374Z,25.63
2022-12-25T09:38:26.524Z,26.13
2022-12-25T09:41:01.371Z,26.17
2022-12-25T09:43:33.355Z,27.08
2022-12-25T09:46:04.330Z,27.95
2022-12-25T09:48:35.660Z,25.55
2022-12-25T09:51:08.564Z,27.02
2022-12-25T09:53:39.683Z,27.35
2022-12-25T09:56:12.870Z,26.88
2022-12-25T09:58:40.685Z,26.85
2022-12-25T10:01:19.140Z,26.98
2022-12-25T10:04:02.446Z,27.80
2022-12-25T10:06:37.118Z,29.55
2022-12-25T10:09:30.342Z,27.23
2022-12-25T10:12:13.062Z,28.05
2022-12-25T10:14:49.637Z,27.50
2022-12-25T10:17:32.295Z,30.40
2022-12-25T10:20:08.127Z,28.05
2022-12-25T10:22:40.748Z,28.92
2022-12-25T10:25:16.893Z,28.00
2022-12-25T10:27:45.328Z,26.90
2022-12-25T10:30:18.880Z,25.98
2022-12-25T10:32:47.665Z,26.77
2022-12-25T10:35:18.678Z,27.42
2022-12-25T10:37:53.577Z,27.42
2022-12-25T10:40:31.166Z,28.33
2022-12-25T10:43:07.092Z,28.13
2022-12-25T10:45:43.810Z,27.95
2022-12-25T10:48:20.310Z,27.77
2022-12-25T10:50:49.758Z,27.55
2022-12-25T10:53:22.362Z,27.40
2022-12-25T10:55:58.571Z,29.13
2022-12-25T10:58:26.604Z,27.20
2022-12-25T11:00:58.175Z,27.00
2022-12-25T11:05:58.353Z,27.85
2022-12-25T11:08:28.846Z,28.23
2022-12-25T11:10:58.530Z,29.85
2022-12-25T11:13:28.509Z,31.00
2022-12-25T11:16:05.813Z,31.95
2022-12-25T11:18:36.279Z,29.48
2022-12-25T11:21:16.461Z,26.55
2022-12-25T11:23:47.283Z,27.10
2022-12-25T11:26:16.784Z,26.63
2022-12-25T11:28:46.063Z,24.42
2022-12-25T11:31:16.627Z,26.50
2022-12-25T11:33:49.669Z,28.05
2022-12-25T11:36:24.506Z,26.38
2022-12-25T11:38:52.354Z,26.88
2022-12-25T11:41:24.846Z,26.30
2022-12-25T11:43:56.388Z,24.13
2022-12-25T11:46:29.268Z,21.25
2022-12-25T11:49:01.551Z,23.15
2022-12-25T11:51:33.748Z,24.58
2022-12-25T11:54:13.186Z,24.48
2022-12-25T11:56:40.960Z,23.38
2022-12-25T11:59:20.505Z,25.77
2022-12-25T12:01:52.264Z,25.30
2022-12-25T12:04:30.027Z,25.65
2022-12-25T12:07:08.316Z,25.23
2022-12-25T12:09:45.013Z,23.88
2022-12-25T12:12:19.439Z,23.83
2022-12-25T12:14:53.010Z,23.05
2022-12-25T12:17:20.888Z,22.70
2022-12-25T12:19:48.736Z,22.65
2022-12-25T12:22:22.548Z,24.73
2022-12-25T12:24:56.066Z,22.85
2022-12-25T12:27:28.053Z,23.60
2022-12-25T12:29:57.560Z,24.27
2022-12-25T12:32:39.399Z,23.83
2022-12-25T12:35:14.603Z,23.48
2022-12-25T12:37:45.704Z,25.05
2022-12-25T12:40:36.104Z,24.40
2022-12-25T12:43:06.110Z,25.73
2022-12-25T12:45:37.664Z,26.48
2022-12-25T12:48:14.940Z,27.65
2022-12-25T12:50:43.456Z,29.75
2022-12-25T12:53:28.621Z,29.02
2022-12-25T12:55:56.513Z,29.35
2022-12-25T12:58:30.359Z,30.83
2022-12-25T13:01:09.341Z,24.33
2022-12-25T13:04:05.742Z,25.52
2022-12-25T13:06:41.480Z,24.55
2022-12-25T13:09:26.985Z,23.75
2022-12-25T13:11:57.286Z,22.77
2022-12-25T13:14:25.384Z,22.38
2022-12-25T13:16:54.872Z,23.38
2022-12-25T13:19:25.446Z,23.35
2022-12-25T13:21:54.366Z,24.77
2022-12-25T13:24:28.232Z,22.15
2022-12-25T13:26:56.225Z,24.67
2022-12-25T13:29:29.443Z,22.00
2022-12-25T13:31:58.218Z,23.77
2022-12-25T13:34:31.347Z,25.30
2022-12-25T13:37:00.340Z,24.42
2022-12-25T13:39:29.436Z,24.05
2022-12-25T13:41:57.236Z,24.58
2022-12-25T13:44:28.684Z,25.70
2022-12-25T13:46:56.424Z,24.50
2022-12-25T13:49:24.795Z,30.00
2022-12-25T13:51:52.588Z,26.02
2022-12-25T13:54:20.466Z,24.42
2022-12-25T13:56:55.554Z,26.48
2022-12-25T13:59:25.458Z,24.40
2022-12-25T14:01:53.654Z,25.88
2022-12-25T14:04:24.438Z,26.05
2022-12-25T14:06:52.951Z,24.80
2022-12-25T14:09:20.920Z,24.88
2022-12-25T14:11:52.408Z,26.48
2022-12-25T14:16:51.071Z,24.42
2022-12-25T14:19:27.585Z,27.95
2022-12-25T14:22:00.239Z,26.90
2022-12-25T14:24:30.078Z,25.27
2022-12-25T14:27:02.649Z,22.75
2022-12-25T14:29:35.015Z,22.88
2022-12-25T14:32:07.513Z,22.08
2022-12-25T18:00:55.649Z,17.15
2022-12-25T18:03:25.301Z,18.40
2022-12-25T18:06:00.053Z,19.38
2022-12-25T18:08:37.000Z,19.48
2022-12-25T18:11:10.066Z,19.73
2022-12-25T18:13:38.282Z,19.27
2022-12-25T18:16:08.331Z,18.15
2022-12-25T18:18:36.524Z,20.08
2022-12-25T18:21:05.151Z,18.83
2022-12-25T18:23:33.560Z,21.33
2022-12-25T18:26:02.315Z,19.75
2022-12-25T18:28:30.352Z,19.25
2022-12-25T18:31:21.645Z,20.40
2022-12-25T18:33:50.454Z,22.33
2022-12-25T18:40:12.688Z,20.40
2022-12-25T18:42:40.551Z,25.33
2022-12-25T18:45:10.971Z,26.63
2022-12-25T18:47:40.959Z,21.00
2022-12-25T18:50:09.342Z,21.75
2022-12-25T18:52:49.079Z,19.60
2022-12-25T18:55:22.280Z,18.52
2022-12-25T18:57:50.042Z,19.60
2022-12-25T19:00:18.329Z,19.90
2022-12-25T19:02:49.120Z,33.05
2022-12-25T19:05:19.155Z,25.60
2022-12-25T19:07:49.399Z,23.70
2022-12-25T19:10:17.125Z,39.30
2022-12-25T19:12:44.785Z,19.88
2022-12-25T19:15:12.716Z,19.98
2022-12-25T19:17:40.368Z,20.15
2022-12-25T19:20:13.352Z,19.23
2022-12-25T19:22:41.854Z,19.60
2022-12-25T19:25:10.794Z,19.20
2022-12-25T19:27:39.061Z,19.88
2022-12-25T19:30:08.839Z,25.13
2022-12-25T19:32:36.834Z,20.55
2022-12-25T19:35:05.438Z,20.25
2022-12-25T19:37:35.181Z,22.75
2022-12-25T19:40:06.410Z,18.95
2022-12-25T19:42:34.297Z,21.98
2022-12-25T19:45:01.876Z,20.55
2022-12-25T19:47:29.689Z,20.15
2022-12-25T19:50:03.912Z,20.58
2022-12-25T19:52:31.865Z,19.98
2022-12-25T19:55:01.487Z,21.65
2022-12-25T19:57:32.038Z,20.45
2022-12-25T19:59:59.748Z,23.63
2022-12-25T20:02:29.922Z,26.20
2022-12-25T20:04:57.668Z,62.80
2022-12-25T20:07:26.657Z,40.05
2022-12-25T20:09:56.312Z,39.88
2022-12-25T20:12:25.537Z,26.45
2022-12-25T20:14:53.265Z,28.45
2022-12-25T20:17:22.693Z,32.63
2022-12-25T20:19:50.529Z,27.63
2022-12-25T20:22:18.284Z,38.17
2022-12-25T20:24:45.881Z,23.80
2022-12-25T20:27:13.670Z,33.25
2022-12-25T20:29:42.892Z,22.50
2022-12-25T20:32:13.983Z,22.52
2022-12-25T20:34:42.393Z,21.30
2022-12-25T20:37:10.149Z,22.10
2022-12-25T20:39:41.189Z,19.95
2022-12-25T20:42:11.305Z,17.55
2022-12-25T20:44:42.275Z,20.52
2022-12-25T20:47:10.099Z,21.35
2022-12-25T20:49:37.725Z,41.63
2022-12-25T20:52:07.450Z,28.13
2022-12-25T20:54:35.628Z,27.67
2022-12-25T20:57:03.413Z,28.30
2022-12-25T20:59:37.127Z,20.17
2022-12-25T21:02:07.185Z,22.15
2022-12-25T21:04:35.361Z,24.17
2022-12-25T21:07:02.996Z,21.42
2022-12-25T21:09:31.557Z,22.33
2022-12-25T21:11:59.340Z,21.10
2022-12-25T21:14:26.913Z,27.55
2022-12-25T21:16:58.288Z,19.95
2022-12-25T21:19:27.482Z,21.77
2022-12-25T21:21:55.239Z,21.05
2022-12-25T21:24:22.798Z,19.42
2022-12-25T21:26:50.675Z,18.98
2022-12-25T21:29:18.450Z,19.30
2022-12-25T21:31:46.008Z,19.42
2022-12-25T21:34:13.673Z,24.90
2022-12-25T21:36:43.189Z,21.05
2022-12-25T21:39:11.625Z,23.40
2022-12-25T21:41:39.599Z,22.30
2022-12-25T21:44:10.573Z,19.90
2022-12-25T21:46:41.557Z,20.63
2022-12-25T21:49:12.330Z,19.33
2022-12-25T21:51:39.949Z,21.10
2022-12-25T21:54:10.184Z,19.85
2022-12-25T21:56:44.486Z,20.00
2022-12-25T21:59:15.271Z,20.23
2022-12-25T22:01:43.513Z,18.77
2022-12-25T22:04:11.962Z,20.27
2022-12-25T22:06:40.248Z,20.02
2022-12-25T22:09:09.616Z,19.23
2022-12-25T22:11:38.234Z,18.95
2022-12-25T22:14:05.960Z,20.83
2022-12-25T22:16:33.674Z,20.30
2022-12-25T22:19:01.288Z,24.00
2022-12-25T22:21:29.097Z,19.50
2022-12-25T22:23:57.201Z,20.80
2022-12-25T22:26:26.240Z,19.83
2022-12-25T22:28:53.984Z,20.75
2022-12-25T22:31:21.910Z,22.58
2022-12-25T22:33:49.531Z,23.55
2022-12-25T22:36:18.125Z,19.00
2022-12-25T22:38:45.889Z,20.23
2022-12-25T22:41:13.486Z,19.23
2022-12-25T22:44:15.955Z,21.88
2022-12-25T22:46:30.694Z,18.90
2022-12-25T22:48:58.467Z,19.08
2022-12-25T22:51:26.085Z,19.50
2022-12-25T22:53:57.422Z,23.88
2022-12-25T22:56:28.247Z,18.92
2022-12-25T22:58:57.555Z,20.40
2022-12-25T23:01:25.218Z,21.35
2022-12-25T23:03:53.781Z,20.13
2022-12-25T23:06:22.017Z,20.42
2022-12-25T23:08:51.687Z,20.20
2022-12-25T23:11:19.835Z,19.83
2022-12-25T23:13:47.721Z,19.05
2022-12-25T23:16:17.714Z,22.35
2022-12-25T23:18:45.447Z,20.48
2022-12-25T23:21:14.483Z,17.98
2022-12-25T23:23:42.070Z,25.02
2022-12-25T23:26:09.800Z,19.77
2022-12-25T23:28:39.339Z,19.85
2022-12-25T23:31:07.490Z,23.25
2022-12-25T23:33:37.951Z,18.02
2022-12-25T23:36:06.434Z,18.73
2022-12-25T23:38:34.039Z,24.75
2022-12-25T23:41:02.147Z,18.48
2022-12-25T23:43:30.425Z,17.25
2022-12-25T23:45:58.015Z,18.05
2022-12-25T23:48:25.875Z,16.65
2022-12-25T23:50:54.944Z,16.65
2022-12-25T23:53:24.098Z,15.50
2022-12-25T23:55:55.860Z,17.50
2022-12-25T23:58:23.780Z,17.05
